Time;durP1;ratioP1;P1;durP2;ratioP2;P2;SDS_P1;SDS_P2;PMS_P1;PMS_P2;Temp;Humidity;BMP_temperature;BMP_pressure;BME280_temperature;BME280_humidity;BME280_pressure;Samples;Min_cycle;Max_cycle;Signal;HPM_P1;HPM_P2
2023/11/27 00:01:03;;;;;;;16.90;11.00;;;;;;;;;;5097547;28;20209;-62
2023/11/27 00:03:32;;;;;;;16.10;10.33;;;;;;;;;;5097562;28;20212;-62
2023/11/27 00:06:00;;;;;;;17.50;10.87;;;;;;;;;;5096949;28;20209;-62
2023/11/27 00:08:28;;;;;;;14.37;10.43;;;;;;;;;;5097492;28;20224;-63
2023/11/27 00:10:57;;;;;;;15.93;9.60;;;;;;;;;;5097287;28;20212;-63
2023/11/27 00:13:28;;;;;;;16.07;9.30;;;;;;;;;;5097423;28;20229;-62
2023/11/27 00:15:56;;;;;;;15.80;10.33;;;;;;;;;;5097089;28;20205;-62
2023/11/27 00:18:24;;;;;;;19.90;9.27;;;;;;;;;;5097420;28;20298;-62
2023/11/27 00:20:53;;;;;;;17.43;10.30;;;;;;;;;;5096701;28;20470;-62
2023/11/27 00:23:21;;;;;;;19.07;11.03;;;;;;;;;;5097399;28;20427;-62
2023/11/27 00:25:49;;;;;;;18.17;11.30;;;;;;;;;;5096878;28;20443;-61
2023/11/27 00:28:20;;;;;;;20.03;9.57;;;;;;;;;;5100640;28;20444;-62
2023/11/27 00:30:48;;;;;;;18.07;10.97;;;;;;;;;;5100595;28;20447;-62
2023/11/27 00:33:16;;;;;;;20.47;11.60;;;;;;;;;;5100610;28;21009;-62
2023/11/27 00:35:44;;;;;;;14.97;10.03;;;;;;;;;;5099948;28;20479;-62
2023/11/27 00:38:13;;;;;;;18.57;10.97;;;;;;;;;;5100829;28;20451;-62
2023/11/27 00:40:41;;;;;;;18.63;10.80;;;;;;;;;;5100708;28;20439;-62
2023/11/27 00:43:09;;;;;;;16.57;9.57;;;;;;;;;;5100384;28;20550;-62
2023/11/27 00:45:39;;;;;;;16.03;9.57;;;;;;;;;;5100628;28;20444;-62
2023/11/27 00:48:07;;;;;;;14.67;10.10;;;;;;;;;;5100636;28;20455;-62
2023/11/27 00:50:39;;;;;;;21.93;10.13;;;;;;;;;;5100087;28;20463;-62
2023/11/27 00:53:07;;;;;;;15.10;9.77;;;;;;;;;;5100356;28;20524;-62
2023/11/27 00:55:35;;;;;;;18.83;10.47;;;;;;;;;;5100474;28;20448;-62
2023/11/27 00:58:03;;;;;;;17.07;10.40;;;;;;;;;;5100404;28;20446;-62
2023/11/27 01:00:31;;;;;;;17.70;10.40;;;;;;;;;;5100225;28;21178;-62
2023/11/27 01:03:01;;;;;;;18.33;10.40;;;;;;;;;;5100179;28;20464;-62
2023/11/27 01:05:29;;;;;;;21.00;10.97;;;;;;;;;;5100112;28;20443;-62
2023/11/27 01:07:57;;;;;;;14.93;9.47;;;;;;;;;;5100142;28;20526;-62
2023/11/27 01:10:26;;;;;;;19.23;10.97;;;;;;;;;;5100217;28;20455;-62
2023/11/27 01:12:54;;;;;;;22.07;9.43;;;;;;;;;;5099569;28;20483;-62
2023/11/27 01:15:22;;;;;;;14.07;9.33;;;;;;;;;;5100102;28;20531;-62
2023/11/27 01:17:50;;;;;;;19.60;9.47;;;;;;;;;;5100003;28;20452;-62
2023/11/27 01:20:20;;;;;;;14.07;9.27;;;;;;;;;;5099614;28;20465;-62
2023/11/27 01:22:48;;;;;;;18.93;9.47;;;;;;;;;;5099496;28;21032;-62
2023/11/27 01:25:17;;;;;;;15.60;8.50;;;;;;;;;;5099977;28;20440;-62
2023/11/27 01:27:45;;;;;;;15.10;10.17;;;;;;;;;;5099543;28;20447;-62
2023/11/27 01:30:14;;;;;;;13.53;9.00;;;;;;;;;;5099651;28;20519;-62
2023/11/27 01:32:43;;;;;;;14.40;9.03;;;;;;;;;;5099595;28;20464;-62
2023/11/27 01:35:12;;;;;;;14.77;9.70;;;;;;;;;;5099211;28;20507;-62
2023/11/27 01:37:41;;;;;;;16.70;9.27;;;;;;;;;;5099158;28;20451;-63
2023/11/27 01:40:10;;;;;;;16.70;9.77;;;;;;;;;;5098885;28;20451;-62
2023/11/27 01:42:40;;;;;;;14.13;9.00;;;;;;;;;;5099449;28;20459;-62
2023/11/27 01:45:08;;;;;;;13.10;8.50;;;;;;;;;;5099572;28;20202;-62
2023/11/27 01:47:36;;;;;;;15.17;9.27;;;;;;;;;;5099274;28;20577;-62
2023/11/27 01:50:06;;;;;;;17.30;9.63;;;;;;;;;;5099000;28;20600;-62
2023/11/27 01:52:35;;;;;;;19.10;8.93;;;;;;;;;;5099235;28;20467;-62
2023/11/27 01:55:04;;;;;;;22.20;9.50;;;;;;;;;;5099279;28;20479;-62
2023/11/27 01:57:33;;;;;;;18.60;8.90;;;;;;;;;;5099416;28;20232;-62
2023/11/27 02:00:03;;;;;;;14.30;8.97;;;;;;;;;;5099256;28;20206;-62
2023/11/27 02:02:31;;;;;;;15.37;9.10;;;;;;;;;;5098970;28;20567;-63
2023/11/27 02:04:59;;;;;;;20.17;9.27;;;;;;;;;;5098671;28;20205;-63
2023/11/27 02:07:27;;;;;;;16.93;8.90;;;;;;;;;;5099070;28;20202;-62
2023/11/27 02:09:56;;;;;;;16.63;9.67;;;;;;;;;;5099082;28;20213;-63
2023/11/27 02:12:25;;;;;;;15.93;9.90;;;;;;;;;;5098974;28;20321;-62
2023/11/27 02:14:55;;;;;;;17.30;10.20;;;;;;;;;;5095736;28;20236;-62
2023/11/27 02:17:24;;;;;;;13.77;9.30;;;;;;;;;;5095190;28;20197;-62
2023/11/27 02:19:52;;;;;;;14.10;9.17;;;;;;;;;;5097217;28;20201;-62
2023/11/27 02:22:22;;;;;;;17.33;10.10;;;;;;;;;;5094924;28;20225;-62
2023/11/27 02:24:52;;;;;;;18.83;9.93;;;;;;;;;;5096353;28;20228;-62
2023/11/27 02:27:21;;;;;;;19.07;9.63;;;;;;;;;;5096204;28;20237;-62
2023/11/27 02:29:49;;;;;;;11.33;8.67;;;;;;;;;;5097584;28;20201;-62
2023/11/27 02:32:17;;;;;;;14.77;9.30;;;;;;;;;;5096950;28;20218;-62
2023/11/27 02:34:46;;;;;;;17.77;9.20;;;;;;;;;;5097638;28;20234;-62
2023/11/27 02:37:14;;;;;;;14.13;8.97;;;;;;;;;;5095608;28;20201;-62
2023/11/27 02:39:43;;;;;;;15.60;8.73;;;;;;;;;;5097961;28;20213;-62
2023/11/27 02:42:12;;;;;;;17.67;9.13;;;;;;;;;;5094703;28;20218;-62
2023/11/27 02:44:41;;;;;;;15.70;8.43;;;;;;;;;;5095312;28;20190;-62
2023/11/27 02:47:09;;;;;;;19.67;9.00;;;;;;;;;;5096066;28;20208;-62
2023/11/27 02:49:38;;;;;;;15.63;8.40;;;;;;;;;;5097278;28;20220;-62
2023/11/27 02:52:06;;;;;;;15.47;8.23;;;;;;;;;;5078080;28;20225;-63
2023/11/27 02:54:34;;;;;;;11.67;8.30;;;;;;;;;;5078055;28;20262;-62
2023/11/27 02:57:03;;;;;;;12.60;8.40;;;;;;;;;;5084432;28;20668;-62
2023/11/27 02:59:32;;;;;;;12.23;7.93;;;;;;;;;;5097955;28;20645;-62
2023/11/27 03:02:00;;;;;;;14.13;8.70;;;;;;;;;;5098123;28;20225;-62
2023/11/27 03:04:30;;;;;;;13.87;8.00;;;;;;;;;;5097633;28;20653;-62
2023/11/27 03:06:59;;;;;;;10.83;7.93;;;;;;;;;;5098103;28;20212;-62
2023/11/27 03:09:27;;;;;;;12.67;8.93;;;;;;;;;;5098051;28;20235;-62
2023/11/27 03:11:55;;;;;;;14.00;8.17;;;;;;;;;;5097725;28;20257;-62
2023/11/27 03:14:23;;;;;;;13.20;8.70;;;;;;;;;;5097882;28;20233;-62
2023/11/27 03:16:53;;;;;;;15.60;9.23;;;;;;;;;;5098080;28;20205;-62
2023/11/27 03:19:21;;;;;;;14.87;8.90;;;;;;;;;;5097748;28;20213;-62
2023/11/27 03:21:54;;;;;;;15.80;8.97;;;;;;;;;;5097083;28;20293;-62
2023/11/27 03:24:22;;;;;;;15.20;9.00;;;;;;;;;;5097371;28;20306;-62
2023/11/27 03:26:50;;;;;;;14.37;7.93;;;;;;;;;;5097661;28;20205;-62
2023/11/27 03:29:18;;;;;;;11.40;8.30;;;;;;;;;;5097884;28;20205;-62
2023/11/27 03:31:46;;;;;;;14.67;8.70;;;;;;;;;;5097885;28;20225;-62
2023/11/27 03:34:16;;;;;;;13.07;8.37;;;;;;;;;;5096958;28;20241;-62
2023/11/27 03:36:44;;;;;;;12.10;7.90;;;;;;;;;;5097510;28;20274;-62
2023/11/27 03:39:13;;;;;;;15.77;8.43;;;;;;;;;;5097852;28;20206;-62
2023/11/27 03:41:41;;;;;;;12.90;8.33;;;;;;;;;;5097544;28;20222;-62
2023/11/27 03:44:09;;;;;;;16.90;8.63;;;;;;;;;;5097540;28;20645;-61
2023/11/27 03:46:37;;;;;;;11.10;8.43;;;;;;;;;;5097409;28;20479;-62
2023/11/27 03:49:06;;;;;;;15.97;8.47;;;;;;;;;;5097513;28;20237;-62
2023/11/27 03:51:37;;;;;;;15.90;8.53;;;;;;;;;;5097482;28;20229;-62
2023/11/27 03:54:06;;;;;;;16.27;8.43;;;;;;;;;;5097659;28;20205;-62
2023/11/27 03:56:35;;;;;;;14.27;8.17;;;;;;;;;;5097622;28;20210;-62
2023/11/27 03:59:03;;;;;;;19.00;8.77;;;;;;;;;;5097443;28;20676;-62
2023/11/27 04:01:31;;;;;;;13.77;7.77;;;;;;;;;;5097837;28;20229;-62
2023/11/27 04:04:00;;;;;;;14.57;8.30;;;;;;;;;;5101361;28;20216;-62
2023/11/27 04:06:31;;;;;;;15.80;9.13;;;;;;;;;;5101066;28;20439;-62
2023/11/27 04:09:01;;;;;;;13.60;7.33;;;;;;;;;;5101569;28;20202;-62
2023/11/27 04:11:31;;;;;;;14.03;8.57;;;;;;;;;;5100928;28;20226;-62
2023/11/27 04:13:59;;;;;;;12.50;7.23;;;;;;;;;;5101341;28;20205;-62
2023/11/27 04:16:27;;;;;;;9.73;7.63;;;;;;;;;;5101292;28;20271;-62
2023/11/27 04:18:55;;;;;;;12.20;7.60;;;;;;;;;;5100837;28;20205;-63
2023/11/27 04:21:23;;;;;;;12.77;7.57;;;;;;;;;;5101145;28;20221;-63
2023/11/27 04:23:52;;;;;;;11.80;7.47;;;;;;;;;;5100825;28;20657;-63
2023/11/27 04:26:22;;;;;;;9.03;6.63;;;;;;;;;;5100815;28;20208;-63
2023/11/27 04:28:50;;;;;;;12.90;7.77;;;;;;;;;;5100936;28;20722;-63
2023/11/27 04:31:18;;;;;;;13.93;8.07;;;;;;;;;;5101260;28;20225;-62
2023/11/27 04:33:47;;;;;;;14.20;7.87;;;;;;;;;;5100457;28;20211;-63
2023/11/27 04:36:18;;;;;;;11.43;7.63;;;;;;;;;;5100818;28;20239;-62
2023/11/27 04:38:48;;;;;;;9.67;6.93;;;;;;;;;;5100515;28;20288;-63
2023/11/27 04:41:16;;;;;;;14.57;7.37;;;;;;;;;;5100658;28;20218;-63
2023/11/27 04:43:46;;;;;;;11.90;7.30;;;;;;;;;;5100733;28;20236;-62
2023/11/27 04:46:14;;;;;;;9.80;6.87;;;;;;;;;;5100547;28;21018;-62
2023/11/27 04:48:42;;;;;;;10.47;7.43;;;;;;;;;;5100517;28;20221;-63
2023/11/27 04:51:11;;;;;;;13.13;7.13;;;;;;;;;;5100550;28;20225;-62
2023/11/27 04:53:39;;;;;;;13.73;7.37;;;;;;;;;;5100649;28;20209;-62
2023/11/27 04:56:08;;;;;;;13.27;7.87;;;;;;;;;;5100372;28;20230;-62
2023/11/27 04:58:36;;;;;;;11.17;7.77;;;;;;;;;;5100160;28;20934;-62
2023/11/27 05:01:06;;;;;;;13.73;8.03;;;;;;;;;;5100414;28;20444;-63
2023/11/27 05:03:34;;;;;;;14.53;7.70;;;;;;;;;;5100438;28;20454;-62
2023/11/27 05:06:03;;;;;;;12.17;7.57;;;;;;;;;;5099975;28;20439;-62
2023/11/27 05:08:31;;;;;;;15.13;7.90;;;;;;;;;;5100367;28;20448;-62
2023/11/27 05:10:59;;;;;;;11.53;8.40;;;;;;;;;;5099797;28;20494;-62
2023/11/27 05:13:27;;;;;;;13.13;7.80;;;;;;;;;;5100045;28;20439;-63
2023/11/27 05:15:56;;;;;;;11.67;7.17;;;;;;;;;;5099805;28;20761;-62
2023/11/27 05:18:25;;;;;;;13.90;7.53;;;;;;;;;;5100172;28;20535;-62
2023/11/27 05:20:53;;;;;;;10.43;7.63;;;;;;;;;;5099642;28;20201;-62
2023/11/27 05:23:22;;;;;;;14.60;7.60;;;;;;;;;;5099795;28;20644;-62
2023/11/27 05:25:50;;;;;;;10.63;7.63;;;;;;;;;;5099853;28;20205;-62
2023/11/27 05:28:18;;;;;;;14.77;8.23;;;;;;;;;;5099874;28;20212;-63
2023/11/27 05:30:46;;;;;;;11.67;7.13;;;;;;;;;;5099908;28;20209;-62
2023/11/27 05:33:16;;;;;;;13.37;7.53;;;;;;;;;;5099603;28;20209;-62
2023/11/27 05:35:49;;;;;;;13.73;7.33;;;;;;;;;;5098898;28;20325;-62
2023/11/27 05:38:18;;;;;;;15.10;8.27;;;;;;;;;;5099721;28;20210;-62
2023/11/27 05:40:50;;;;;;;15.13;8.30;;;;;;;;;;5099442;28;20216;-62
2023/11/27 05:46:40;;;;;;;13.30;8.60;;;;;;;;;;5099273;28;20188;-61
2023/11/27 05:49:08;;;;;;;13.97;7.13;;;;;;;;;;5099365;28;20209;-62
2023/11/27 05:51:39;;;;;;;10.50;7.13;;;;;;;;;;5099311;28;20229;-62
2023/11/27 05:54:09;;;;;;;13.33;7.53;;;;;;;;;;5099162;28;20284;-62
2023/11/27 05:56:37;;;;;;;12.17;8.10;;;;;;;;;;5098997;28;20600;-61
2023/11/27 05:59:08;;;;;;;11.13;7.90;;;;;;;;;;5099295;28;20450;-62
2023/11/27 06:01:36;;;;;;;13.50;9.10;;;;;;;;;;5098838;28;20834;-62
2023/11/27 06:04:05;;;;;;;12.70;7.83;;;;;;;;;;5098836;28;20465;-62
2023/11/27 06:06:39;;;;;;;14.20;8.10;;;;;;;;;;5085516;28;20795;-62
2023/11/27 06:09:13;;;;;;;13.77;8.13;;;;;;;;;;5086795;28;20525;-62
2023/11/27 06:11:42;;;;;;;11.97;7.53;;;;;;;;;;5093388;28;20468;-61
2023/11/27 06:14:10;;;;;;;11.77;7.47;;;;;;;;;;5098760;28;21021;-61
2023/11/27 06:16:38;;;;;;;14.50;8.23;;;;;;;;;;5098598;28;20502;-62
2023/11/27 06:19:08;;;;;;;12.53;7.90;;;;;;;;;;5098425;28;20485;-61
2023/11/27 06:21:37;;;;;;;14.07;8.07;;;;;;;;;;5098403;28;20496;-61
2023/11/27 06:24:06;;;;;;;14.07;8.00;;;;;;;;;;5086756;28;20446;-61
2023/11/27 06:26:38;;;;;;;15.47;7.67;;;;;;;;;;5078189;28;20447;-62
2023/11/27 06:29:07;;;;;;;12.30;7.77;;;;;;;;;;5078207;28;20786;-61
2023/11/27 06:31:35;;;;;;;14.20;7.23;;;;;;;;;;5077928;28;20975;-61
2023/11/27 06:34:03;;;;;;;12.90;7.73;;;;;;;;;;5077656;28;20492;-62
2023/11/27 06:36:31;;;;;;;17.67;7.73;;;;;;;;;;5085206;28;20570;-61
2023/11/27 06:39:00;;;;;;;14.03;8.10;;;;;;;;;;5097979;28;20446;-62
2023/11/27 06:41:28;;;;;;;13.10;7.87;;;;;;;;;;5097915;28;20218;-61
2023/11/27 06:43:57;;;;;;;11.90;7.13;;;;;;;;;;5088031;28;20453;-62
2023/11/27 06:46:27;;;;;;;12.03;7.13;;;;;;;;;;5098288;28;20508;-62
2023/11/27 06:48:59;;;;;;;14.93;7.50;;;;;;;;;;5097894;28;20439;-62
2023/11/27 06:51:30;;;;;;;13.67;7.13;;;;;;;;;;5098186;28;20456;-62
2023/11/27 06:53:58;;;;;;;14.23;7.93;;;;;;;;;;5098410;28;20444;-61
2023/11/27 06:56:33;;;;;;;11.47;7.37;;;;;;;;;;5097966;28;21001;-62
2023/11/27 06:59:03;;;;;;;11.87;8.63;;;;;;;;;;5097934;28;20808;-62
2023/11/27 07:01:31;;;;;;;16.33;7.60;;;;;;;;;;5098086;28;20463;-62
2023/11/27 07:03:59;;;;;;;14.10;8.70;;;;;;;;;;5097896;28;20446;-61
2023/11/27 07:06:31;;;;;;;12.47;7.23;;;;;;;;;;5097949;28;20465;-61
2023/11/27 07:09:04;;;;;;;12.17;7.80;;;;;;;;;;5097930;28;20447;-61
2023/11/27 07:11:32;;;;;;;16.37;8.40;;;;;;;;;;5094707;28;20481;-62
2023/11/27 07:14:02;;;;;;;15.37;8.33;;;;;;;;;;5097812;28;20811;-61
2023/11/27 07:16:30;;;;;;;12.90;8.47;;;;;;;;;;5095668;28;20484;-61
2023/11/27 07:18:59;;;;;;;7.90;6.97;;;;;;;;;;5080551;28;20444;-62
2023/11/27 07:21:28;;;;;;;27.97;14.33;;;;;;;;;;5093187;28;20471;-61
2023/11/27 07:23:59;;;;;;;12.30;9.07;;;;;;;;;;5088914;28;20441;-62
2023/11/27 07:26:30;;;;;;;17.93;9.50;;;;;;;;;;5077535;28;20452;-61
2023/11/27 07:28:58;;;;;;;16.20;8.20;;;;;;;;;;5077439;28;20444;-61
2023/11/27 07:31:30;;;;;;;14.60;8.43;;;;;;;;;;5077309;28;20525;-62
2023/11/27 07:34:00;;;;;;;10.23;7.20;;;;;;;;;;5077408;28;20446;-61
2023/11/27 07:36:28;;;;;;;11.73;7.77;;;;;;;;;;5077770;28;21038;-61
2023/11/27 07:38:56;;;;;;;13.93;7.47;;;;;;;;;;5081591;28;20448;-61
2023/11/27 07:41:28;;;;;;;13.70;7.63;;;;;;;;;;5088069;28;20469;-61
2023/11/27 07:43:57;;;;;;;15.30;8.40;;;;;;;;;;5088244;28;20460;-61
2023/11/27 07:46:25;;;;;;;15.07;7.47;;;;;;;;;;5088396;28;20205;-61
2023/11/27 07:48:55;;;;;;;17.80;7.27;;;;;;;;;;5101662;28;20453;-61
2023/11/27 07:51:23;;;;;;;13.87;7.97;;;;;;;;;;5101332;28;20540;-61
2023/11/27 07:56:36;;;;;;;12.90;7.17;;;;;;;;;;5100466;28;20494;-61
2023/11/27 07:59:05;;;;;;;9.30;6.93;;;;;;;;;;5101397;28;20945;-61
2023/11/27 08:01:34;;;;;;;14.70;7.80;;;;;;;;;;5101534;28;20467;-61
2023/11/27 08:04:04;;;;;;;15.40;6.80;;;;;;;;;;5101289;28;20481;-62
2023/11/27 08:06:32;;;;;;;9.53;7.57;;;;;;;;;;5101104;28;20440;-61
2023/11/27 08:09:01;;;;;;;9.97;6.90;;;;;;;;;;5101405;28;20443;-61
2023/11/27 08:11:30;;;;;;;11.00;7.07;;;;;;;;;;5101271;28;21001;-61
2023/11/27 08:13:58;;;;;;;12.83;7.37;;;;;;;;;;5101441;28;20450;-61
2023/11/27 08:16:26;;;;;;;18.00;7.07;;;;;;;;;;5100969;28;20986;-61
2023/11/27 08:18:54;;;;;;;9.80;6.83;;;;;;;;;;5100870;28;20440;-62
2023/11/27 08:21:24;;;;;;;13.33;7.57;;;;;;;;;;5101005;28;20551;-62
2023/11/27 08:23:53;;;;;;;10.97;7.67;;;;;;;;;;5101170;28;20443;-62
2023/11/27 08:26:25;;;;;;;15.53;7.50;;;;;;;;;;5100861;28;20789;-62
2023/11/27 08:28:53;;;;;;;12.13;7.87;;;;;;;;;;5101083;28;20443;-62
2023/11/27 08:31:28;;;;;;;11.47;7.43;;;;;;;;;;5100988;28;20470;-61
2023/11/27 08:33:56;;;;;;;9.27;6.43;;;;;;;;;;5100368;28;20453;-61
2023/11/27 08:36:26;;;;;;;12.93;6.10;;;;;;;;;;5100757;28;20531;-61
2023/11/27 08:38:55;;;;;;;15.47;7.70;;;;;;;;;;5100975;28;20448;-61
2023/11/27 08:41:23;;;;;;;8.87;6.63;;;;;;;;;;5100761;28;20484;-61
2023/11/27 08:43:52;;;;;;;12.30;5.93;;;;;;;;;;5090130;28;20457;-61
2023/11/27 08:46:20;;;;;;;12.90;6.20;;;;;;;;;;5087304;28;20856;-61
2023/11/27 08:48:48;;;;;;;15.30;6.70;;;;;;;;;;5099827;28;20451;-61
2023/11/27 08:51:16;;;;;;;11.00;6.70;;;;;;;;;;5100568;28;20521;-61
2023/11/27 08:53:46;;;;;;;16.97;7.23;;;;;;;;;;5100507;28;20444;-61
2023/11/27 08:56:17;;;;;;;14.23;7.37;;;;;;;;;;5100507;28;20447;-61
2023/11/27 08:58:49;;;;;;;10.83;6.63;;;;;;;;;;5100401;28;20487;-61
2023/11/27 09:01:17;;;;;;;10.23;6.07;;;;;;;;;;5100161;28;20578;-61
2023/11/27 09:03:45;;;;;;;16.07;7.80;;;;;;;;;;5100500;28;20443;-61
2023/11/27 09:06:16;;;;;;;8.63;6.03;;;;;;;;;;5100020;28;20454;-62
2023/11/27 09:08:46;;;;;;;12.47;6.50;;;;;;;;;;5100013;28;20436;-61
2023/11/27 09:11:19;;;;;;;12.43;6.70;;;;;;;;;;5097779;28;20470;-62
2023/11/27 09:13:53;;;;;;;10.43;6.20;;;;;;;;;;5099419;28;20496;-62
2023/11/27 09:16:24;;;;;;;13.80;7.30;;;;;;;;;;5089599;28;20970;-62
2023/11/27 09:18:55;;;;;;;8.87;6.30;;;;;;;;;;5099481;28;20471;-62
2023/11/27 09:21:29;;;;;;;10.43;5.87;;;;;;;;;;5079810;28;20469;-61
2023/11/27 09:23:59;;;;;;;12.67;6.70;;;;;;;;;;5079845;28;20444;-61
2023/11/27 09:26:27;;;;;;;12.73;6.83;;;;;;;;;;5079778;28;20443;-61
2023/11/27 09:29:20;;;;;;;10.40;5.43;;;;;;;;;;5079606;28;20451;-61
2023/11/27 09:31:52;;;;;;;8.27;5.80;;;;;;;;;;5079333;28;20793;-62
2023/11/27 09:34:20;;;;;;;10.03;6.57;;;;;;;;;;5078979;28;20585;-61
2023/11/27 09:36:48;;;;;;;10.70;6.07;;;;;;;;;;5079349;28;20483;-61
2023/11/27 09:39:31;;;;;;;15.67;5.93;;;;;;;;;;5079192;28;20501;-61
2023/11/27 09:42:00;;;;;;;9.00;6.23;;;;;;;;;;5087278;28;20963;-61
2023/11/27 09:44:29;;;;;;;9.63;6.77;;;;;;;;;;5098782;28;20436;-61
2023/11/27 09:46:59;;;;;;;11.40;6.33;;;;;;;;;;5095992;28;20444;-61
2023/11/27 09:49:28;;;;;;;13.03;6.47;;;;;;;;;;5087229;28;20450;-61
2023/11/27 09:51:58;;;;;;;11.37;6.13;;;;;;;;;;5078732;28;20475;-61
2023/11/27 09:54:29;;;;;;;10.87;5.97;;;;;;;;;;5091055;28;20789;-61
2023/11/27 09:56:58;;;;;;;12.67;6.03;;;;;;;;;;5085903;28;20466;-61
2023/11/27 09:59:29;;;;;;;9.67;5.47;;;;;;;;;;5098261;28;20486;-62
2023/11/27 10:01:58;;;;;;;9.37;5.80;;;;;;;;;;5099253;28;20463;-62
2023/11/27 10:04:27;;;;;;;9.33;5.63;;;;;;;;;;5098945;28;20443;-61
2023/11/27 10:06:55;;;;;;;9.20;5.60;;;;;;;;;;5098909;28;20938;-62
2023/11/27 10:09:23;;;;;;;8.97;6.23;;;;;;;;;;5098842;28;20451;-62
2023/11/27 10:11:51;;;;;;;9.57;5.67;;;;;;;;;;5098670;28;20459;-62
2023/11/27 10:14:27;;;;;;;7.20;5.97;;;;;;;;;;5098781;28;20216;-62
2023/11/27 10:17:06;;;;;;;8.83;6.07;;;;;;;;;;5098777;28;20843;-62
2023/11/27 10:19:39;;;;;;;11.23;6.00;;;;;;;;;;5098442;28;20692;-62
2023/11/27 10:22:08;;;;;;;11.70;5.17;;;;;;;;;;5098761;28;20229;-62
2023/11/27 10:24:37;;;;;;;11.23;6.00;;;;;;;;;;5098898;28;20447;-62
2023/11/27 10:27:08;;;;;;;13.83;6.33;;;;;;;;;;5098682;28;20451;-62
2023/11/27 10:29:38;;;;;;;9.43;5.60;;;;;;;;;;5098586;28;20229;-62
2023/11/27 10:32:06;;;;;;;19.50;11.03;;;;;;;;;;5098658;28;20459;-62
2023/11/27 10:34:38;;;;;;;10.50;5.73;;;;;;;;;;5098230;28;20475;-62
2023/11/27 10:37:07;;;;;;;9.73;5.83;;;;;;;;;;5098325;28;20439;-62
2023/11/27 10:39:35;;;;;;;9.63;5.77;;;;;;;;;;5098557;28;20483;-62
2023/11/27 10:42:04;;;;;;;13.73;5.80;;;;;;;;;;5097935;28;20894;-62
2023/11/27 10:44:35;;;;;;;14.50;6.87;;;;;;;;;;5098167;28;20240;-61
2023/11/27 10:47:07;;;;;;;8.63;5.73;;;;;;;;;;5098292;28;20206;-61
2023/11/27 10:49:38;;;;;;;8.80;6.30;;;;;;;;;;5098267;28;20206;-61
2023/11/27 10:52:08;;;;;;;10.83;5.20;;;;;;;;;;5098461;28;20283;-61
2023/11/27 10:54:40;;;;;;;10.20;6.03;;;;;;;;;;5098291;28;20205;-61
2023/11/27 10:57:09;;;;;;;8.80;5.97;;;;;;;;;;5098124;28;20309;-61
2023/11/27 10:59:40;;;;;;;10.03;6.13;;;;;;;;;;5097945;28;20254;-61
2023/11/27 11:02:11;;;;;;;7.87;5.87;;;;;;;;;;5096285;28;20241;-61
2023/11/27 11:04:45;;;;;;;8.77;5.70;;;;;;;;;;5088078;28;20745;-61
2023/11/27 11:07:18;;;;;;;9.90;5.80;;;;;;;;;;5093856;28;20564;-61
2023/11/27 11:09:48;;;;;;;10.60;5.40;;;;;;;;;;5092860;28;20219;-61
2023/11/27 11:12:20;;;;;;;8.50;5.23;;;;;;;;;;5088273;28;20225;-61
2023/11/27 11:14:49;;;;;;;8.20;5.13;;;;;;;;;;5097501;28;20201;-61
2023/11/27 11:17:25;;;;;;;7.37;4.67;;;;;;;;;;5091386;28;20564;-61
2023/11/27 11:19:57;;;;;;;10.33;4.90;;;;;;;;;;5077092;28;20341;-61
2023/11/27 11:22:31;;;;;;;9.50;4.30;;;;;;;;;;5085027;28;20232;-61
2023/11/27 11:25:08;;;;;;;11.20;5.60;;;;;;;;;;5097636;28;20262;-61
2023/11/27 11:27:40;;;;;;;12.87;5.40;;;;;;;;;;5089731;28;20213;-61
2023/11/27 11:30:12;;;;;;;11.00;5.50;;;;;;;;;;5095430;28;20564;-61
2023/11/27 11:32:42;;;;;;;8.37;5.17;;;;;;;;;;5096583;28;20313;-61
2023/11/27 11:35:12;;;;;;;8.20;5.17;;;;;;;;;;5097063;28;20297;-61
2023/11/27 11:37:47;;;;;;;7.00;4.70;;;;;;;;;;5097422;28;20676;-61
2023/11/27 11:40:15;;;;;;;7.53;5.10;;;;;;;;;;5086457;28;20304;-61
2023/11/27 11:42:45;;;;;;;9.47;4.90;;;;;;;;;;5095321;28;20217;-60
2023/11/27 11:45:18;;;;;;;11.90;5.00;;;;;;;;;;5093860;28;20199;-61
2023/11/27 11:47:52;;;;;;;5.87;4.97;;;;;;;;;;5097227;28;20571;-61
2023/11/27 11:50:30;;;;;;;7.77;5.00;;;;;;;;;;5093292;28;20208;-61
2023/11/27 11:53:00;;;;;;;9.30;5.37;;;;;;;;;;5096299;28;20229;-61
2023/11/27 11:55:30;;;;;;;5.63;4.63;;;;;;;;;;5097267;28;20570;-61
2023/11/27 11:58:03;;;;;;;9.40;5.03;;;;;;;;;;5097819;28;20247;-61
2023/11/27 12:00:42;;;;;;;7.33;4.27;;;;;;;;;;5097624;28;20437;-61
2023/11/27 12:03:15;;;;;;;6.53;3.80;;;;;;;;;;5097264;28;20225;-61
2023/11/27 12:05:46;;;;;;;7.23;4.00;;;;;;;;;;5095043;28;20203;-60
2023/11/27 12:08:14;;;;;;;7.90;3.53;;;;;;;;;;5089163;28;20212;-62
2023/11/27 12:10:43;;;;;;;6.17;3.83;;;;;;;;;;5097172;28;20684;-62
2023/11/27 12:13:11;;;;;;;8.43;4.37;;;;;;;;;;5089505;28;20233;-62
2023/11/27 12:15:40;;;;;;;7.83;4.43;;;;;;;;;;5096959;28;20621;-62
2023/11/27 12:18:09;;;;;;;5.70;3.83;;;;;;;;;;5085047;28;20212;-61
2023/11/27 12:20:42;;;;;;;6.17;4.47;;;;;;;;;;5076964;28;20230;-62
2023/11/27 12:23:13;;;;;;;7.40;4.47;;;;;;;;;;5078393;28;20229;-62
2023/11/27 12:25:41;;;;;;;4.90;3.90;;;;;;;;;;5080982;28;20206;-62
2023/11/27 12:28:09;;;;;;;7.67;4.63;;;;;;;;;;5080258;28;20210;-62
2023/11/27 12:30:38;;;;;;;7.13;4.90;;;;;;;;;;5080523;28;20210;-62
2023/11/27 12:33:08;;;;;;;5.80;4.47;;;;;;;;;;5080282;28;20229;-62
2023/11/27 12:35:37;;;;;;;6.80;4.47;;;;;;;;;;5080196;28;20245;-62
2023/11/27 12:38:08;;;;;;;8.33;4.67;;;;;;;;;;5080274;28;20685;-62
2023/11/27 12:40:36;;;;;;;9.77;5.23;;;;;;;;;;5082464;28;20234;-61
2023/11/27 12:43:05;;;;;;;6.53;5.07;;;;;;;;;;5085382;28;20222;-62
2023/11/27 12:45:33;;;;;;;8.67;4.40;;;;;;;;;;5080217;28;20210;-62
2023/11/27 12:48:07;;;;;;;7.47;4.67;;;;;;;;;;5080550;28;20214;-62
2023/11/27 12:50:39;;;;;;;8.70;5.63;;;;;;;;;;5080354;28;20202;-62
2023/11/27 12:53:09;;;;;;;11.20;5.30;;;;;;;;;;5080266;28;20317;-62
2023/11/27 12:55:38;;;;;;;12.20;5.73;;;;;;;;;;5080399;28;20210;-61
2023/11/27 12:58:10;;;;;;;7.43;4.63;;;;;;;;;;5080173;28;20293;-62
2023/11/27 13:00:43;;;;;;;7.90;5.20;;;;;;;;;;5079993;28;20701;-61
2023/11/27 13:03:12;;;;;;;10.27;6.30;;;;;;;;;;5079596;28;20225;-62
2023/11/27 13:05:41;;;;;;;8.47;5.20;;;;;;;;;;5079882;28;20673;-61
2023/11/27 13:08:11;;;;;;;8.00;5.20;;;;;;;;;;5079863;28;20680;-61
2023/11/27 13:10:43;;;;;;;8.97;4.30;;;;;;;;;;5079890;28;20304;-61
2023/11/27 13:13:11;;;;;;;6.50;5.07;;;;;;;;;;5085686;28;20646;-61
2023/11/27 13:15:39;;;;;;;8.07;5.37;;;;;;;;;;5099939;28;20212;-61
2023/11/27 13:18:15;;;;;;;12.73;6.10;;;;;;;;;;5086201;28;20683;-62
2023/11/27 13:20:48;;;;;;;8.13;5.23;;;;;;;;;;5099904;28;20274;-61
2023/11/27 13:23:20;;;;;;;9.77;5.50;;;;;;;;;;5099856;28;20202;-62
2023/11/27 13:25:48;;;;;;;9.60;5.07;;;;;;;;;;5099712;28;20205;-62
2023/11/27 13:28:18;;;;;;;6.33;4.73;;;;;;;;;;5099902;28;20216;-61
2023/11/27 13:30:54;;;;;;;10.73;4.67;;;;;;;;;;5099657;28;20250;-61
2023/11/27 13:33:23;;;;;;;9.00;5.60;;;;;;;;;;5099405;28;20597;-62
2023/11/27 13:35:57;;;;;;;7.83;5.30;;;;;;;;;;5099376;28;20761;-62
2023/11/27 13:38:28;;;;;;;8.13;4.60;;;;;;;;;;5099596;28;20736;-61
2023/11/27 13:40:59;;;;;;;7.63;5.17;;;;;;;;;;5099479;28;20225;-61
2023/11/27 13:43:30;;;;;;;8.63;5.27;;;;;;;;;;5099445;28;20220;-61
2023/11/27 13:45:59;;;;;;;7.30;4.90;;;;;;;;;;5099399;28;20209;-61
2023/11/27 13:48:27;;;;;;;7.00;5.53;;;;;;;;;;5099403;28;20205;-62
2023/11/27 13:50:56;;;;;;;7.77;5.20;;;;;;;;;;5099356;28;20202;-62
2023/11/27 13:53:31;;;;;;;7.20;5.37;;;;;;;;;;5099256;28;20209;-62
2023/11/27 13:56:03;;;;;;;8.27;5.47;;;;;;;;;;5099072;28;20212;-62
2023/11/27 13:58:32;;;;;;;8.17;5.07;;;;;;;;;;5099349;28;20205;-62
2023/11/27 14:01:02;;;;;;;7.97;5.57;;;;;;;;;;5099518;28;20240;-62
2023/11/27 14:03:34;;;;;;;9.40;5.77;;;;;;;;;;5098899;28;20723;-62
2023/11/27 14:06:15;;;;;;;9.07;5.37;;;;;;;;;;5099316;28;20201;-61
2023/11/27 14:08:51;;;;;;;9.90;5.03;;;;;;;;;;5099221;28;20206;-62
2023/11/27 14:11:19;;;;;;;7.67;5.60;;;;;;;;;;5099181;28;20224;-61
2023/11/27 14:14:04;;;;;;;8.60;5.23;;;;;;;;;;5099101;28;20254;-62
2023/11/27 14:16:33;;;;;;;6.60;5.13;;;;;;;;;;5098981;28;20210;-61
2023/11/27 14:24:49;;;;;;;17.97;7.13;;;;;;;;;;5099004;28;20206;-62
2023/11/27 14:27:23;;;;;;;15.07;6.03;;;;;;;;;;5098831;28;20209;-62
2023/11/27 14:29:51;;;;;;;11.77;5.87;;;;;;;;;;5098692;28;20558;-61
2023/11/27 14:32:20;;;;;;;11.27;6.20;;;;;;;;;;5098703;28;20230;-61
2023/11/27 14:34:52;;;;;;;8.57;6.00;;;;;;;;;;5098043;28;20237;-61
2023/11/27 14:37:20;;;;;;;11.33;6.30;;;;;;;;;;5098530;28;20212;-62
2023/11/27 14:39:50;;;;;;;9.67;6.07;;;;;;;;;;5098610;28;20217;-61
2023/11/27 14:42:19;;;;;;;8.60;4.93;;;;;;;;;;5089794;28;20221;-62
2023/11/27 14:44:48;;;;;;;6.63;4.80;;;;;;;;;;5097651;28;20201;-61
2023/11/27 14:47:17;;;;;;;10.93;5.07;;;;;;;;;;5098122;28;20235;-62
2023/11/27 14:49:52;;;;;;;9.13;6.10;;;;;;;;;;5098007;28;20205;-61
2023/11/27 14:52:25;;;;;;;9.50;6.33;;;;;;;;;;5098283;28;20306;-61
2023/11/27 14:54:58;;;;;;;8.90;6.07;;;;;;;;;;5098264;28;20209;-62
2023/11/27 14:57:28;;;;;;;11.43;7.00;;;;;;;;;;5098324;28;20205;-62
2023/11/27 15:00:01;;;;;;;8.23;6.07;;;;;;;;;;5098313;28;20202;-61